createdAt,value
2018-04-22T00:00:16.810Z,79.0
2018-04-22T00:01:16.881Z,79.0
2018-04-22T00:02:17.153Z,78.8
2018-04-22T00:03:16.415Z,79.3
2018-04-22T00:04:16.677Z,79.5
2018-04-22T00:05:16.940Z,79.6
2018-04-22T00:06:17.263Z,79.7
2018-04-22T00:07:16.540Z,79.3
2018-04-22T00:08:16.801Z,79.3
2018-04-22T00:09:17.070Z,79.7
2018-04-22T00:10:16.339Z,79.7
2018-04-22T00:11:16.379Z,79.7
2018-04-22T00:12:16.852Z,79.7
2018-04-22T00:13:17.116Z,79.8
2018-04-22T00:14:16.385Z,79.8
2018-04-22T00:15:16.656Z,80.6
2018-04-22T00:16:16.908Z,80.1
2018-04-22T00:17:17.168Z,80.2
2018-04-22T00:18:16.444Z,80.4
2018-04-22T00:19:16.704Z,80.2
2018-04-22T00:20:16.970Z,80.2
2018-04-22T00:21:17.010Z,80.3
2018-04-22T00:22:16.266Z,80.3
2018-04-22T00:23:16.539Z,80.2
2018-04-22T00:24:16.801Z,81.0
2018-04-22T00:25:17.078Z,81.2
2018-04-22T00:26:16.373Z,81.3
2018-04-22T00:27:16.636Z,81.0
2018-04-22T00:28:16.900Z,81.1
2018-04-22T00:29:17.163Z,80.9
2018-04-22T00:30:16.441Z,81.0
2018-04-22T00:31:16.477Z,81.0
2018-04-22T00:32:16.741Z,81.5
2018-04-22T00:33:17.018Z,81.7
2018-04-22T00:34:16.284Z,81.7
2018-04-22T00:35:16.564Z,81.9
2018-04-22T00:36:16.828Z,81.8
2018-04-22T00:37:17.080Z,81.8
2018-04-22T00:38:16.352Z,82.0
2018-04-22T00:39:16.612Z,82.2
2018-04-22T00:40:16.889Z,82.7
2018-04-22T00:41:16.929Z,82.8
2018-04-22T00:42:17.189Z,82.7
2018-04-22T00:43:16.455Z,82.8
2018-04-22T00:44:16.984Z,82.8
2018-04-22T00:45:16.295Z,82.8
2018-04-22T00:46:16.564Z,82.8
2018-04-22T00:47:16.828Z,82.8
2018-04-22T00:48:17.090Z,83.0
2018-04-22T00:49:16.368Z,82.7
2018-04-22T00:50:16.635Z,82.6
2018-04-22T00:51:16.674Z,82.8
2018-04-22T00:52:16.982Z,82.8
2018-04-22T00:53:17.244Z,83.5
2018-04-22T00:54:16.501Z,83.4
2018-04-22T00:55:16.772Z,83.2
2018-04-22T00:56:17.034Z,83.2
2018-04-22T00:57:16.295Z,83.0
2018-04-22T00:58:16.553Z,83.2
2018-04-22T00:59:16.813Z,83.2
2018-04-22T01:00:17.081Z,83.3
2018-04-22T01:01:17.129Z,83.3
2018-04-22T01:02:16.395Z,83.3
2018-04-22T01:03:16.659Z,83.3
2018-04-22T01:04:16.922Z,83.5
2018-04-22T01:05:17.187Z,83.5
2018-04-22T01:06:16.445Z,84.1
2018-04-22T01:07:16.719Z,84.2
2018-04-22T01:08:16.986Z,84.2
2018-04-22T01:09:17.259Z,84.2
2018-04-22T01:10:16.527Z,84.3
2018-04-22T01:11:16.561Z,84.2
2018-04-22T01:12:16.819Z,84.3
2018-04-22T01:13:17.082Z,84.3
2018-04-22T01:14:16.345Z,84.3
2018-04-22T01:15:16.629Z,83.8
2018-04-22T01:16:16.888Z,83.8
2018-04-22T01:17:17.148Z,83.8
2018-04-22T01:18:16.406Z,83.8
2018-04-22T01:19:16.668Z,84.2
2018-04-22T01:20:16.945Z,84.0
2018-04-22T01:21:16.976Z,84.2
2018-04-22T01:22:17.239Z,84.2
2018-04-22T01:23:16.504Z,84.2
2018-04-22T01:24:16.757Z,84.3
2018-04-22T01:25:17.025Z,84.0
2018-04-22T01:26:16.293Z,84.0
2018-04-22T01:27:16.553Z,84.0
2018-04-22T01:28:16.809Z,84.2
2018-04-22T01:29:17.119Z,84.1
2018-04-22T01:30:16.393Z,84.0
2018-04-22T01:31:16.443Z,84.5
2018-04-22T01:32:16.704Z,84.7
2018-04-22T01:33:16.967Z,84.8
2018-04-22T01:34:17.245Z,85.0
2018-04-22T01:35:16.518Z,84.8
2018-04-22T01:36:16.781Z,85.0
2018-04-22T01:37:17.045Z,85.0
2018-04-22T01:38:16.308Z,84.9
2018-04-22T01:39:16.577Z,84.9
2018-04-22T01:40:16.848Z,85.3
2018-04-22T01:41:16.888Z,85.3
2018-04-22T01:42:17.155Z,85.5
2018-04-22T01:43:16.411Z,85.5
2018-04-22T01:44:16.684Z,85.5
2018-04-22T01:45:16.959Z,85.5
2018-04-22T01:46:17.219Z,85.5
2018-04-22T01:47:16.483Z,85.7
2018-04-22T01:48:16.749Z,86.0
2018-04-22T01:49:17.018Z,85.8
2018-04-22T01:50:16.283Z,85.8
2018-04-22T01:51:16.330Z,85.8
2018-04-22T01:52:16.591Z,85.8
2018-04-22T01:53:16.856Z,85.9
2018-04-22T01:54:17.112Z,86.0
2018-04-22T01:55:16.379Z,85.9
2018-04-22T01:56:16.642Z,86.2
2018-04-22T01:57:16.904Z,86.3
2018-04-22T01:58:17.167Z,86.2
2018-04-22T01:59:16.428Z,86.0
2018-04-22T02:00:16.728Z,86.0
2018-04-22T02:01:16.738Z,86.2
2018-04-22T02:02:16.994Z,86.2
2018-04-22T02:03:16.266Z,86.4
2018-04-22T02:04:16.527Z,86.4
2018-04-22T02:05:16.791Z,86.3
2018-04-22T02:06:17.051Z,86.3
2018-04-22T02:07:16.314Z,86.3
2018-04-22T02:08:16.591Z,86.2
2018-04-22T02:09:16.859Z,86.2
2018-04-22T02:10:17.143Z,86.2
2018-04-22T02:11:17.159Z,86.2
2018-04-22T02:12:16.425Z,86.4
2018-04-22T02:13:16.690Z,86.3
2018-04-22T02:14:16.968Z,86.2
2018-04-22T02:15:17.490Z,86.4
2018-04-22T02:16:16.754Z,86.3
2018-04-22T02:17:17.020Z,86.3
2018-04-22T02:18:16.288Z,86.3
2018-04-22T02:19:16.571Z,86.2
2018-04-22T02:20:16.842Z,86.2
2018-04-22T02:21:16.881Z,86.2
2018-04-22T02:22:17.154Z,86.0
2018-04-22T02:23:16.417Z,86.0
2018-04-22T02:24:16.680Z,86.0
2018-04-22T02:25:16.944Z,86.1
2018-04-22T02:26:17.206Z,86.2
2018-04-22T02:27:16.513Z,86.2
2018-04-22T02:28:16.787Z,86.3
2018-04-22T02:29:17.243Z,86.3
2018-04-22T02:30:17.450Z,86.5
2018-04-22T02:31:16.566Z,86.7
2018-04-22T02:32:16.838Z,86.7
2018-04-22T02:33:17.099Z,87.0
2018-04-22T02:34:16.363Z,87.3
2018-04-22T02:35:16.625Z,87.5
2018-04-22T02:36:16.905Z,87.7
2018-04-22T02:37:17.166Z,87.8
2018-04-22T02:38:16.431Z,87.3
2018-04-22T02:39:16.699Z,87.2
2018-04-22T02:40:16.972Z,87.4
2018-04-22T02:41:17.011Z,87.1
2018-04-22T02:42:16.279Z,87.2
2018-04-22T02:43:16.547Z,87.2
2018-04-22T02:44:16.819Z,87.3
2018-04-22T02:45:17.089Z,87.1
2018-04-22T02:46:16.359Z,87.1
2018-04-22T02:47:16.631Z,87.2
2018-04-22T02:48:16.892Z,87.3
2018-04-22T02:49:17.160Z,87.4
2018-04-22T02:50:16.436Z,87.4
2018-04-22T02:51:16.479Z,87.3
2018-04-22T02:52:16.731Z,87.3
2018-04-22T02:53:17.003Z,87.2
2018-04-22T02:54:16.293Z,87.2
2018-04-22T02:55:16.566Z,87.3
2018-04-22T02:56:17.158Z,87.3
2018-04-22T02:57:16.423Z,87.3
2018-04-22T02:58:16.693Z,87.3
2018-04-22T02:59:16.965Z,87.3
2018-04-22T03:00:17.241Z,87.0
2018-04-22T03:01:16.277Z,87.0
2018-04-22T03:02:16.536Z,87.1
2018-04-22T03:03:16.802Z,87.2
2018-04-22T03:04:17.069Z,87.2
2018-04-22T03:05:16.331Z,87.3
2018-04-22T03:06:16.590Z,87.5
2018-04-22T03:07:16.843Z,87.5
2018-04-22T03:08:17.104Z,87.3
2018-04-22T03:09:16.362Z,87.3
2018-04-22T03:10:16.624Z,87.5
2018-04-22T03:11:16.684Z,87.5
2018-04-22T03:12:16.946Z,87.5
2018-04-22T03:13:17.211Z,87.7
2018-04-22T03:14:16.475Z,87.8
2018-04-22T03:15:16.731Z,87.8
2018-04-22T03:16:16.993Z,87.8
2018-04-22T03:17:16.250Z,87.8
2018-04-22T03:18:16.524Z,87.8
2018-04-22T03:19:16.777Z,87.9
2018-04-22T03:20:17.050Z,87.9
2018-04-22T03:21:17.339Z,88.3
2018-04-22T03:22:16.711Z,88.2
2018-04-22T03:23:16.983Z,88.2
2018-04-22T03:24:17.245Z,88.0
2018-04-22T03:25:16.508Z,88.2
2018-04-22T03:26:16.772Z,87.9
2018-04-22T03:27:17.038Z,87.9
2018-04-22T03:28:16.301Z,87.8
2018-04-22T03:29:16.573Z,88.0
2018-04-22T03:30:16.851Z,88.0
2018-04-22T03:31:16.886Z,88.0
2018-04-22T03:32:17.145Z,88.0
2018-04-22T03:33:16.412Z,87.9
2018-04-22T03:34:16.683Z,87.9
2018-04-22T03:35:16.946Z,88.0
2018-04-22T03:36:17.201Z,88.0
2018-04-22T03:37:16.468Z,88.2
2018-04-22T03:38:16.733Z,88.2
2018-04-22T03:39:17.012Z,88.2
2018-04-22T03:40:16.277Z,88.3
2018-04-22T03:41:16.342Z,88.3
2018-04-22T03:42:16.617Z,88.3
2018-04-22T03:43:16.885Z,88.2
2018-04-22T03:44:17.151Z,88.3
2018-04-22T03:45:16.414Z,88.1
2018-04-22T03:46:16.694Z,87.5
2018-04-22T03:47:16.961Z,87.3
2018-04-22T03:48:17.230Z,87.4
2018-04-22T03:49:16.492Z,87.6
2018-04-22T03:50:16.768Z,88.2
2018-04-22T03:51:16.790Z,88.2
2018-04-22T03:52:17.325Z,88.2
2018-04-22T03:53:16.588Z,87.9
2018-04-22T03:54:16.849Z,87.8
2018-04-22T03:55:17.106Z,87.8
2018-04-22T03:56:16.381Z,88.0
2018-04-22T03:57:16.639Z,87.8
2018-04-22T03:58:16.900Z,87.6
2018-04-22T03:59:17.166Z,87.5
2018-04-22T04:00:16.440Z,87.2
2018-04-22T04:01:16.483Z,87.7
2018-04-22T04:02:16.754Z,87.7
2018-04-22T04:03:17.022Z,87.8
2018-04-22T04:04:16.284Z,88.0
2018-04-22T04:05:16.543Z,88.0
2018-04-22T04:06:16.814Z,88.0
2018-04-22T04:07:17.085Z,88.0
2018-04-22T04:08:16.353Z,88.2
2018-04-22T04:09:16.621Z,88.2
2018-04-22T04:10:16.883Z,88.2
2018-04-22T04:11:16.925Z,88.5
2018-04-22T04:12:17.473Z,88.3
2018-04-22T04:13:16.752Z,88.3
2018-04-22T04:14:17.176Z,88.4
2018-04-22T04:15:16.451Z,88.6
2018-04-22T04:16:16.714Z,88.6
2018-04-22T04:17:16.974Z,88.5
2018-04-22T04:18:17.245Z,88.5
2018-04-22T04:19:16.558Z,88.7
2018-04-22T04:20:16.827Z,88.8
2018-04-22T04:21:16.876Z,89.2
2018-04-22T04:22:17.143Z,89.0
2018-04-22T04:23:16.404Z,88.8
2018-04-22T04:24:16.662Z,89.1
2018-04-22T04:25:16.921Z,89.0
2018-04-22T04:26:17.171Z,88.6
2018-04-22T04:27:16.809Z,88.5
2018-04-22T04:28:17.514Z,88.7
2018-04-22T04:29:16.773Z,88.5
2018-04-22T04:30:17.047Z,88.7
2018-04-22T04:31:17.090Z,88.7
2018-04-22T04:32:16.361Z,88.6
2018-04-22T04:33:16.628Z,88.5
2018-04-22T04:34:16.895Z,88.5
2018-04-22T04:35:17.159Z,88.5
2018-04-22T04:36:16.432Z,88.5
2018-04-22T04:37:16.701Z,88.7
2018-04-22T04:38:16.970Z,88.8
2018-04-22T04:39:17.230Z,88.8
2018-04-22T04:40:16.507Z,88.8
2018-04-22T04:41:16.543Z,88.4
2018-04-22T04:42:16.808Z,88.5
2018-04-22T04:43:17.070Z,88.7
2018-04-22T04:44:16.338Z,88.3
2018-04-22T04:45:16.602Z,88.2
2018-04-22T04:46:16.878Z,87.9
2018-04-22T04:47:17.155Z,87.8
2018-04-22T04:48:16.422Z,87.5
2018-04-22T04:49:16.683Z,87.2
2018-04-22T04:50:16.970Z,87.0
2018-04-22T04:51:16.991Z,87.0
2018-04-22T04:52:16.261Z,87.0
2018-04-22T04:53:16.521Z,87.0
2018-04-22T04:54:16.796Z,86.8
2018-04-22T04:55:17.121Z,86.7
2018-04-22T04:56:16.390Z,86.7
2018-04-22T04:57:16.664Z,86.2
2018-04-22T04:58:16.929Z,86.1
2018-04-22T04:59:17.187Z,86.2
2018-04-22T05:00:16.547Z,86.5
2018-04-22T05:01:16.485Z,86.5
2018-04-22T05:02:16.749Z,86.5
2018-04-22T05:03:17.012Z,86.6
2018-04-22T05:04:16.275Z,86.5
2018-04-22T05:05:16.543Z,86.4
2018-04-22T05:06:16.807Z,86.2
2018-04-22T05:07:17.062Z,86.0
2018-04-22T05:08:16.327Z,86.0
2018-04-22T05:09:16.599Z,85.7
2018-04-22T05:10:16.864Z,85.6
2018-04-22T05:11:16.932Z,85.5
2018-04-22T05:12:17.215Z,85.5
2018-04-22T05:13:16.472Z,85.2
2018-04-22T05:14:16.736Z,85.3
2018-04-22T05:15:16.998Z,84.8
2018-04-22T05:16:16.261Z,84.7
2018-04-22T05:17:16.534Z,84.6
2018-04-22T05:18:16.799Z,84.3
2018-04-22T05:19:17.057Z,84.3
2018-04-22T05:20:16.326Z,84.7
2018-04-22T05:21:16.374Z,84.7
2018-04-22T05:22:16.647Z,84.7
2018-04-22T05:23:16.911Z,84.2
2018-04-22T05:24:17.236Z,84.3
2018-04-22T05:25:16.513Z,84.0
2018-04-22T05:26:16.782Z,83.7
2018-04-22T05:27:17.046Z,83.9
2018-04-22T05:28:16.310Z,84.2
2018-04-22T05:29:16.578Z,84.2
2018-04-22T05:30:16.849Z,83.9
2018-04-22T05:31:17.031Z,84.1
2018-04-22T05:32:16.393Z,84.2
2018-04-22T05:33:16.656Z,83.8
2018-04-22T05:34:16.926Z,83.5
2018-04-22T05:35:17.202Z,83.8
2018-04-22T05:36:16.478Z,83.5
2018-04-22T05:37:16.746Z,82.2
2018-04-22T05:38:17.006Z,82.4
2018-04-22T05:39:16.267Z,82.8
2018-04-22T05:40:16.545Z,83.1
2018-04-22T05:41:16.579Z,83.2
2018-04-22T05:42:16.838Z,82.5
2018-04-22T05:43:17.095Z,82.2
2018-04-22T05:44:16.365Z,82.0
2018-04-22T05:45:16.638Z,82.2
2018-04-22T05:46:16.902Z,82.5
2018-04-22T05:47:17.160Z,82.3
2018-04-22T05:48:16.423Z,82.3
2018-04-22T05:49:16.699Z,82.2
2018-04-22T05:50:16.974Z,82.5
2018-04-22T05:51:17.003Z,82.7
2018-04-22T05:52:16.269Z,82.8
2018-04-22T05:53:16.544Z,82.4
2018-04-22T05:54:16.815Z,80.6
2018-04-22T05:55:17.082Z,81.2
2018-04-22T05:56:16.349Z,81.2
2018-04-22T05:57:16.612Z,81.3
2018-04-22T05:58:16.877Z,81.1
2018-04-22T05:59:17.400Z,80.7
2018-04-22T06:00:16.670Z,80.8
2018-04-22T06:01:16.725Z,80.7
2018-04-22T06:02:17.062Z,80.5
2018-04-22T06:03:16.328Z,80.3
2018-04-22T06:04:16.590Z,80.5
2018-04-22T06:05:16.852Z,80.5
2018-04-22T06:06:17.115Z,80.0
2018-04-22T06:07:16.379Z,79.8
2018-04-22T06:08:16.651Z,79.3
2018-04-22T06:09:16.917Z,78.5
2018-04-22T06:10:17.190Z,77.7
2018-04-22T06:11:17.233Z,78.0
2018-04-22T06:12:16.494Z,77.8
2018-04-22T06:13:16.756Z,77.0
2018-04-22T06:14:17.014Z,77.0
2018-04-22T06:15:16.292Z,76.8
2018-04-22T06:16:16.552Z,75.5
2018-04-22T06:17:16.832Z,75.7
2018-04-22T06:18:17.158Z,76.1
2018-04-22T06:19:16.419Z,75.2
2018-04-22T06:20:16.695Z,74.8
2018-04-22T06:21:16.737Z,74.3
2018-04-22T06:22:16.996Z,74.4
2018-04-22T06:23:16.262Z,73.2
2018-04-22T06:24:16.528Z,74.0
2018-04-22T06:25:16.787Z,73.4
2018-04-22T06:26:17.055Z,72.8
2018-04-22T06:27:16.313Z,72.6
2018-04-22T06:28:16.642Z,72.8
2018-04-22T06:29:16.914Z,72.5
2018-04-22T06:30:17.184Z,71.5
2018-04-22T06:31:17.230Z,70.7
2018-04-22T06:32:16.496Z,70.2
2018-04-22T06:33:16.756Z,68.5
2018-04-22T06:34:17.021Z,67.5
2018-04-22T06:35:16.283Z,67.2
2018-04-22T06:36:16.544Z,66.2
2018-04-22T06:37:16.803Z,66.5
2018-04-22T06:38:17.054Z,66.5
2018-04-22T06:39:16.311Z,66.2
2018-04-22T06:40:16.667Z,67.0
2018-04-22T06:41:16.617Z,67.0
2018-04-22T06:42:16.885Z,66.4
2018-04-22T06:43:17.140Z,66.2
2018-04-22T06:44:16.408Z,66.0
2018-04-22T06:45:16.686Z,66.1
2018-04-22T06:46:16.938Z,65.8
2018-04-22T06:47:17.203Z,65.5
2018-04-22T06:48:16.480Z,63.9
2018-04-22T06:49:16.749Z,62.8
2018-04-22T06:50:17.030Z,62.3
2018-04-22T06:51:17.064Z,61.8
2018-04-22T06:52:16.324Z,61.5
2018-04-22T06:53:16.644Z,60.9
2018-04-22T06:54:16.915Z,59.2
2018-04-22T06:55:17.187Z,59.1
2018-04-22T06:56:16.463Z,58.4
2018-04-22T06:57:16.728Z,58.5
2018-04-22T06:58:16.990Z,57.7
2018-04-22T06:59:17.241Z,57.8
2018-04-22T07:00:16.518Z,58.5
2018-04-22T07:01:16.546Z,57.6
2018-04-22T07:02:16.814Z,56.4
2018-04-22T07:03:17.078Z,56.0
2018-04-22T07:04:16.338Z,55.9
2018-04-22T07:05:16.611Z,54.5
2018-04-22T07:06:16.867Z,53.9
2018-04-22T07:07:17.129Z,53.4
2018-04-22T07:08:16.439Z,53.0
2018-04-22T07:09:16.708Z,52.2
2018-04-22T07:10:16.975Z,51.8
2018-04-22T07:11:17.011Z,51.9
2018-04-22T07:12:16.267Z,52.0
2018-04-22T07:13:16.532Z,51.5
2018-04-22T07:14:16.794Z,51.5
2018-04-22T07:15:17.073Z,51.5
2018-04-22T07:16:16.341Z,50.0
2018-04-22T07:17:16.609Z,49.6
2018-04-22T07:18:16.868Z,48.9
2018-04-22T07:19:17.138Z,49.2
2018-04-22T07:20:16.403Z,49.1
2018-04-22T07:21:16.482Z,50.4
2018-04-22T07:22:16.748Z,48.9
2018-04-22T07:23:17.008Z,48.6
2018-04-22T07:24:16.331Z,48.5
2018-04-22T07:25:16.607Z,48.0
2018-04-22T07:26:16.876Z,48.1
2018-04-22T07:27:17.142Z,48.8
2018-04-22T07:28:16.444Z,49.0
2018-04-22T07:29:16.808Z,49.2
2018-04-22T07:30:17.084Z,48.5
2018-04-22T07:31:17.144Z,48.5
2018-04-22T07:32:16.511Z,47.5
2018-04-22T07:33:16.822Z,47.1
2018-04-22T07:34:17.080Z,48.6
2018-04-22T07:35:16.348Z,48.2
2018-04-22T07:36:16.620Z,48.4
2018-04-22T07:37:16.888Z,46.5
2018-04-22T07:38:17.147Z,47.8
2018-04-22T07:39:16.414Z,47.0
2018-04-22T07:40:16.684Z,47.0
2018-04-22T07:41:16.737Z,47.0
2018-04-22T07:42:17.054Z,47.5
2018-04-22T07:43:16.318Z,46.0
2018-04-22T07:44:16.581Z,46.0
2018-04-22T07:45:16.839Z,46.5
2018-04-22T07:46:17.106Z,45.5
2018-04-22T07:47:16.367Z,44.5
2018-04-22T07:48:16.628Z,44.7
2018-04-22T07:49:16.891Z,44.4
2018-04-22T07:50:17.159Z,43.8
2018-04-22T07:51:17.187Z,43.0
2018-04-22T07:52:16.455Z,41.6
2018-04-22T07:53:16.718Z,43.5
2018-04-22T07:54:16.977Z,43.6
2018-04-22T07:55:17.235Z,42.9
2018-04-22T07:56:16.488Z,41.5
2018-04-22T07:57:16.748Z,40.6
2018-04-22T07:58:17.009Z,39.1
2018-04-22T07:59:16.265Z,38.5
2018-04-22T08:00:16.555Z,38.1
2018-04-22T08:01:16.580Z,38.2
2018-04-22T08:02:16.842Z,38.4
2018-04-22T08:03:17.098Z,38.4
2018-04-22T08:04:16.355Z,38.0
2018-04-22T08:05:16.616Z,39.0
2018-04-22T08:06:16.876Z,38.9
2018-04-22T08:07:17.136Z,37.6
2018-04-22T08:08:16.396Z,37.6
2018-04-22T08:09:16.662Z,38.0
2018-04-22T08:10:16.934Z,35.9
2018-04-22T08:11:17.359Z,36.0
2018-04-22T08:12:16.614Z,35.8
2018-04-22T08:13:16.872Z,36.6
2018-04-22T08:14:17.131Z,37.2
2018-04-22T08:15:16.395Z,36.9
2018-04-22T08:16:16.709Z,36.0
2018-04-22T08:17:16.975Z,35.1
2018-04-22T08:18:17.229Z,35.5
2018-04-22T08:19:16.493Z,35.1
2018-04-22T08:20:16.758Z,34.6
2018-04-22T08:21:16.805Z,33.1
2018-04-22T08:22:17.069Z,33.0
2018-04-22T08:23:16.337Z,32.6
2018-04-22T08:24:16.616Z,31.6
2018-04-22T08:25:16.879Z,32.0
2018-04-22T08:26:17.139Z,31.9
2018-04-22T08:27:16.399Z,31.5
2018-04-22T08:28:16.740Z,32.0
2018-04-22T08:29:17.010Z,32.1
2018-04-22T08:30:16.279Z,31.4
2018-04-22T08:31:16.324Z,31.4
2018-04-22T08:32:16.587Z,31.4
2018-04-22T08:33:16.885Z,33.0
2018-04-22T08:34:17.151Z,33.0
2018-04-22T08:35:16.418Z,32.5
2018-04-22T08:36:16.671Z,32.0
2018-04-22T08:37:16.923Z,31.4
2018-04-22T08:38:17.205Z,31.4
2018-04-22T08:39:16.467Z,30.4
2018-04-22T08:40:16.739Z,30.1
2018-04-22T08:41:16.771Z,30.1
2018-04-22T08:42:17.038Z,31.1
2018-04-22T08:43:16.308Z,30.8
2018-04-22T08:44:16.574Z,29.4
2018-04-22T08:45:16.836Z,29.2
2018-04-22T08:46:17.091Z,29.8
2018-04-22T08:47:16.349Z,29.1
2018-04-22T08:48:16.617Z,29.1
2018-04-22T08:49:16.869Z,29.0
2018-04-22T08:50:17.137Z,29.6
2018-04-22T08:51:17.183Z,30.2
2018-04-22T08:52:16.451Z,30.4
2018-04-22T08:53:16.718Z,30.1
2018-04-22T08:54:16.988Z,30.0
2018-04-22T08:55:17.254Z,30.1
2018-04-22T08:56:16.509Z,30.2
2018-04-22T08:57:16.776Z,29.0
2018-04-22T08:58:17.038Z,28.1
2018-04-22T08:59:16.301Z,27.8
2018-04-22T09:00:16.574Z,28.1
2018-04-22T09:01:16.665Z,27.1
2018-04-22T09:02:16.925Z,27.1
2018-04-22T09:03:17.183Z,27.3
2018-04-22T09:04:16.446Z,27.3
2018-04-22T09:05:16.712Z,27.4
2018-04-22T09:06:17.014Z,25.7
2018-04-22T09:07:16.278Z,26.4
2018-04-22T09:08:16.536Z,26.8
2018-04-22T09:09:16.795Z,27.1
2018-04-22T09:10:17.066Z,27.4
2018-04-22T09:11:17.099Z,27.8
2018-04-22T09:12:16.368Z,28.2
2018-04-22T09:13:16.629Z,28.2
2018-04-22T09:14:16.903Z,28.9
2018-04-22T09:15:17.162Z,29.1
2018-04-22T09:16:16.424Z,28.9
2018-04-22T09:17:16.686Z,27.0
2018-04-22T09:18:16.952Z,26.9
2018-04-22T09:19:17.230Z,26.1
2018-04-22T09:20:16.507Z,25.6
2018-04-22T09:21:16.545Z,26.8
2018-04-22T09:22:16.799Z,27.1
2018-04-22T09:23:17.070Z,26.5
2018-04-22T09:24:16.336Z,26.2
2018-04-22T09:25:16.599Z,26.4
2018-04-22T09:26:16.865Z,26.1
2018-04-22T09:27:17.131Z,25.2
2018-04-22T09:28:16.387Z,26.1
2018-04-22T09:29:16.663Z,24.6
2018-04-22T09:30:16.926Z,24.6
2018-04-22T09:31:16.971Z,24.4
2018-04-22T09:32:17.230Z,24.9
2018-04-22T09:33:16.491Z,23.9
2018-04-22T09:34:16.755Z,24.3
2018-04-22T09:35:17.006Z,24.1
2018-04-22T09:36:16.266Z,24.2
2018-04-22T09:37:16.534Z,24.0
2018-04-22T09:38:16.789Z,25.1
2018-04-22T09:39:17.056Z,25.8
2018-04-22T09:40:16.321Z,26.0
2018-04-22T09:41:16.387Z,26.9
2018-04-22T09:42:16.653Z,27.1
2018-04-22T09:43:16.915Z,27.6
2018-04-22T09:44:17.193Z,25.9
2018-04-22T09:45:16.461Z,27.9
2018-04-22T09:46:16.729Z,26.0
2018-04-22T09:47:16.983Z,28.4
2018-04-22T09:48:17.244Z,28.1
2018-04-22T09:49:16.506Z,28.6
2018-04-22T09:50:16.773Z,26.9
2018-04-22T09:51:16.798Z,26.9
2018-04-22T09:52:17.058Z,27.4
2018-04-22T09:53:16.315Z,28.0
2018-04-22T09:54:16.576Z,28.4
2018-04-22T09:55:16.848Z,28.4
2018-04-22T09:56:17.115Z,28.3
2018-04-22T09:57:16.375Z,27.9
2018-04-22T09:58:16.642Z,27.9
2018-04-22T09:59:16.904Z,26.7
2018-04-22T10:00:17.192Z,25.4
2018-04-22T10:01:17.215Z,25.2
2018-04-22T10:02:16.474Z,24.2
2018-04-22T10:03:16.794Z,26.4
2018-04-22T10:04:17.052Z,27.0
2018-04-22T10:05:16.327Z,26.9
2018-04-22T10:06:16.591Z,26.6
2018-04-22T10:07:16.854Z,25.3
2018-04-22T10:08:17.131Z,25.4
2018-04-22T10:09:16.390Z,26.6
2018-04-22T10:10:16.656Z,25.8
2018-04-22T10:11:16.698Z,25.0
2018-04-22T10:12:16.959Z,24.9
2018-04-22T10:13:17.220Z,24.0
2018-04-22T10:14:16.488Z,26.1
2018-04-22T10:15:16.757Z,26.2
2018-04-22T10:16:17.026Z,25.3
2018-04-22T10:17:16.289Z,24.8
2018-04-22T10:18:16.551Z,24.1
2018-04-22T10:19:16.814Z,24.0
2018-04-22T10:20:17.090Z,23.6
2018-04-22T10:21:17.131Z,23.8
2018-04-22T10:22:16.388Z,24.3
2018-04-22T10:23:16.626Z,23.1
2018-04-22T10:24:16.889Z,23.1
2018-04-22T10:25:17.163Z,22.2
2018-04-22T10:26:16.432Z,22.4
2018-04-22T10:27:16.692Z,22.9
2018-04-22T10:28:16.960Z,24.7
2018-04-22T10:29:17.491Z,23.8
2018-04-22T10:30:16.761Z,23.4
2018-04-22T10:31:16.813Z,24.4
2018-04-22T10:32:17.096Z,24.9
2018-04-22T10:33:16.360Z,24.4
2018-04-22T10:34:16.628Z,25.0
2018-04-22T10:35:16.890Z,24.8
2018-04-22T10:36:17.151Z,24.2
2018-04-22T10:37:16.423Z,23.1
2018-04-22T10:38:16.687Z,22.8
2018-04-22T10:39:16.949Z,22.6
2018-04-22T10:40:17.214Z,21.6
2018-04-22T10:41:16.276Z,21.8
2018-04-22T10:42:16.540Z,23.5
2018-04-22T10:43:16.809Z,24.1
2018-04-22T10:44:17.079Z,23.3
2018-04-22T10:45:16.345Z,22.5
2018-04-22T10:46:16.606Z,22.2
2018-04-22T10:47:16.864Z,24.0
2018-04-22T10:48:17.121Z,23.7
2018-04-22T10:49:16.391Z,23.0
2018-04-22T10:50:16.674Z,22.4
2018-04-22T10:51:16.701Z,22.4
2018-04-22T10:52:16.961Z,22.2
2018-04-22T10:53:17.225Z,21.9
2018-04-22T10:54:16.487Z,23.9
2018-04-22T10:55:16.852Z,22.2
2018-04-22T10:56:17.176Z,22.6
2018-04-22T10:57:16.444Z,23.4
2018-04-22T10:58:16.833Z,23.0
2018-04-22T10:59:17.126Z,23.1
2018-04-22T11:00:16.399Z,21.6
2018-04-22T11:01:16.876Z,21.6
2018-04-22T11:02:17.144Z,22.1
2018-04-22T11:03:16.408Z,21.6
2018-04-22T11:04:16.662Z,21.6
2018-04-22T11:05:16.933Z,22.6
2018-04-22T11:06:17.194Z,21.9
2018-04-22T11:07:16.512Z,22.1
2018-04-22T11:08:16.785Z,21.3
2018-04-22T11:09:17.058Z,21.5
2018-04-22T11:10:16.323Z,22.2
2018-04-22T11:11:16.374Z,21.6
2018-04-22T11:12:16.635Z,22.2
2018-04-22T11:13:16.892Z,21.7
2018-04-22T11:14:17.234Z,22.3
2018-04-22T11:15:16.497Z,21.8
2018-04-22T11:16:16.758Z,20.8
2018-04-22T11:17:17.022Z,20.2
2018-04-22T11:18:16.291Z,20.9
2018-04-22T11:19:16.565Z,21.9
2018-04-22T11:20:16.841Z,22.5
2018-04-22T11:21:16.878Z,22.9
2018-04-22T11:22:17.134Z,22.9
2018-04-22T11:23:16.401Z,22.1
2018-04-22T11:24:16.667Z,21.6
2018-04-22T11:25:16.938Z,21.4
2018-04-22T11:26:17.203Z,21.1
2018-04-22T11:27:16.462Z,21.0
2018-04-22T11:28:16.728Z,22.4
2018-04-22T11:29:16.985Z,22.4
2018-04-22T11:30:17.253Z,22.9
2018-04-22T11:31:16.297Z,22.1
2018-04-22T11:32:16.557Z,21.6
2018-04-22T11:33:16.816Z,23.4
2018-04-22T11:34:17.081Z,21.3
2018-04-22T11:35:16.341Z,21.1
2018-04-22T11:36:16.604Z,21.7
2018-04-22T11:37:16.868Z,22.4
2018-04-22T11:38:17.119Z,22.6
2018-04-22T11:39:16.374Z,21.6
2018-04-22T11:40:16.638Z,22.6
2018-04-22T11:41:16.680Z,22.4
2018-04-22T11:42:16.944Z,22.2
2018-04-22T11:43:17.511Z,22.2
2018-04-22T11:44:16.779Z,21.9
2018-04-22T11:45:17.040Z,22.4
2018-04-22T11:46:16.293Z,23.6
2018-04-22T11:47:16.560Z,24.0
2018-04-22T11:48:16.820Z,23.9
2018-04-22T11:49:17.082Z,24.2
2018-04-22T11:50:16.342Z,24.1
2018-04-22T11:51:16.377Z,23.9
2018-04-22T11:52:16.645Z,24.1
2018-04-22T11:53:16.913Z,24.1
2018-04-22T11:54:17.173Z,23.6
2018-04-22T11:55:16.443Z,23.6
2018-04-22T11:56:16.700Z,23.4
2018-04-22T11:57:16.959Z,24.1
2018-04-22T11:58:17.220Z,24.2
2018-04-22T11:59:16.495Z,24.2
2018-04-22T12:00:16.781Z,23.9
2018-04-22T12:01:16.821Z,23.9
2018-04-22T12:02:17.082Z,24.6
2018-04-22T12:03:16.340Z,24.6
2018-04-22T12:04:16.614Z,24.6
2018-04-22T12:05:16.867Z,24.6
2018-04-22T12:06:17.130Z,25.2
2018-04-22T12:07:16.392Z,24.8
2018-04-22T12:08:16.649Z,24.9
2018-04-22T12:09:16.911Z,25.0
2018-04-22T12:10:17.199Z,25.2
2018-04-22T12:11:16.294Z,25.4
2018-04-22T12:12:16.554Z,25.0
2018-04-22T12:13:16.814Z,24.9
2018-04-22T12:14:17.071Z,24.9
2018-04-22T12:15:16.334Z,24.9
2018-04-22T12:16:16.607Z,24.9
2018-04-22T12:17:16.868Z,25.0
2018-04-22T12:18:17.127Z,24.8
2018-04-22T12:19:16.394Z,25.2
2018-04-22T12:20:16.662Z,25.1
2018-04-22T12:21:16.705Z,25.7
2018-04-22T12:22:17.292Z,25.8
2018-04-22T12:23:16.553Z,25.8
2018-04-22T12:24:16.816Z,26.1
2018-04-22T12:25:17.089Z,26.0
2018-04-22T12:26:16.352Z,25.9
2018-04-22T12:27:16.615Z,25.9
2018-04-22T12:28:16.876Z,25.8
2018-04-22T12:29:17.142Z,26.6
2018-04-22T12:30:16.410Z,25.9
2018-04-22T12:31:16.457Z,25.9
2018-04-22T12:32:16.721Z,25.6
2018-04-22T12:33:16.982Z,25.6
2018-04-22T12:34:17.238Z,26.2
2018-04-22T12:35:16.512Z,25.8
2018-04-22T12:36:16.774Z,26.0
2018-04-22T12:37:17.044Z,26.1
2018-04-22T12:38:16.302Z,25.9
2018-04-22T12:39:16.568Z,25.9
2018-04-22T12:40:16.834Z,25.9
2018-04-22T12:41:16.886Z,26.1
2018-04-22T12:42:17.143Z,26.1
2018-04-22T12:43:16.406Z,26.4
2018-04-22T12:44:16.676Z,25.9
2018-04-22T12:45:16.940Z,26.2
2018-04-22T12:46:17.205Z,26.1
2018-04-22T12:47:16.465Z,26.6
2018-04-22T12:48:16.722Z,26.4
2018-04-22T12:49:16.987Z,26.1
2018-04-22T12:50:17.271Z,26.4
2018-04-22T12:51:16.318Z,26.2
2018-04-22T12:52:16.577Z,26.2
2018-04-22T12:53:16.842Z,26.1
2018-04-22T12:54:17.112Z,26.1
2018-04-22T12:55:16.373Z,26.4
2018-04-22T12:56:16.629Z,26.0
2018-04-22T12:57:16.900Z,25.8
2018-04-22T12:58:17.168Z,25.9
2018-04-22T12:59:16.501Z,25.8
2018-04-22T13:00:16.787Z,25.6
2018-04-22T13:01:16.820Z,25.8
2018-04-22T13:02:17.259Z,26.1
2018-04-22T13:03:16.527Z,25.8
2018-04-22T13:04:16.781Z,25.9
2018-04-22T13:05:17.043Z,25.8
2018-04-22T13:06:16.304Z,25.9
2018-04-22T13:07:16.567Z,25.4
2018-04-22T13:08:16.840Z,25.5
2018-04-22T13:09:17.099Z,25.6
2018-04-22T13:10:16.367Z,25.6
2018-04-22T13:11:16.426Z,25.8
2018-04-22T13:12:16.686Z,25.8
2018-04-22T13:13:16.938Z,26.6
2018-04-22T13:14:17.199Z,26.6
2018-04-22T13:15:16.459Z,26.3
2018-04-22T13:16:16.721Z,25.3
2018-04-22T13:17:16.990Z,25.4
2018-04-22T13:18:16.252Z,25.4